Time;durP1;ratioP1;P1;durP2;ratioP2;P2;SDS_P1;SDS_P2;PMS_P1;PMS_P2;Temp;Humidity;BMP_temperature;BMP_pressure;BME280_temperature;BME280_humidity;BME280_pressure;Samples;Min_cycle;Max_cycle;Signal;HPM_P1;HPM_P2
2023/12/26 00:01:07;0.00;0.00;0.62;0.00;0.00;0.62;2.70;2.17;;;22.70;30.00;;;;;;2256134;61;20385;-61
2023/12/26 00:03:52;0.00;0.00;0.62;0.00;0.00;0.62;2.50;1.80;;;22.70;30.00;;;;;;2255971;61;20366;-60
2023/12/26 00:06:40;0.00;0.00;0.62;0.00;0.00;0.62;1.90;1.60;;;22.70;30.00;;;;;;2256574;61;20362;-60
2023/12/26 00:09:25;0.00;0.00;0.62;0.00;0.00;0.62;1.87;1.13;;;22.70;30.00;;;;;;2256784;61;20956;-57
2023/12/26 00:12:10;0.00;0.00;0.62;0.00;0.00;0.62;2.30;1.47;;;22.70;30.00;;;;;;2256029;61;20369;-59
2023/12/26 00:14:56;0.00;0.00;0.62;0.00;0.00;0.62;1.83;1.23;;;22.70;30.00;;;;;;2256867;61;20428;-60
2023/12/26 00:17:41;0.00;0.00;0.62;0.00;0.00;0.62;2.53;1.57;;;22.70;30.00;;;;;;2256463;61;20390;-58
2023/12/26 00:20:26;0.00;0.00;0.62;0.00;0.00;0.62;2.10;1.50;;;22.70;30.00;;;;;;2256488;61;20417;-61
2023/12/26 00:23:11;0.00;0.00;0.62;0.00;0.00;0.62;2.07;1.30;;;22.70;30.00;;;;;;2256160;61;20369;-61
2023/12/26 00:25:58;0.00;0.00;0.62;0.00;0.00;0.62;2.80;1.70;;;22.70;30.00;;;;;;2256410;61;20416;-56
2023/12/26 00:28:43;0.00;0.00;0.62;0.00;0.00;0.62;2.03;1.23;;;22.60;29.90;;;;;;2256496;61;20365;-58
2023/12/26 00:31:29;0.00;0.00;0.62;0.00;0.00;0.62;1.80;1.20;;;22.70;30.00;;;;;;2256640;61;20374;-58
2023/12/26 00:34:14;0.00;0.00;0.62;0.00;0.00;0.62;2.00;1.50;;;22.70;30.00;;;;;;2256312;61;20417;-57
2023/12/26 00:36:59;0.00;0.00;0.62;0.00;0.00;0.62;2.07;1.13;;;22.70;30.00;;;;;;2256565;61;20397;-58
2023/12/26 00:39:45;0.00;0.00;0.62;0.00;0.00;0.62;1.97;1.43;;;22.70;30.00;;;;;;2256425;61;20382;-64
2023/12/26 00:42:30;0.00;0.00;0.62;0.00;0.00;0.62;1.83;1.30;;;22.70;30.00;;;;;;2255941;61;20405;-58
2023/12/26 00:45:15;0.00;0.00;0.62;0.00;0.00;0.62;1.80;1.20;;;22.70;30.00;;;;;;2256451;61;20361;-58
2023/12/26 00:48:02;0.00;0.00;0.62;0.00;0.00;0.62;1.97;1.40;;;22.70;30.00;;;;;;2255780;61;21204;-59
2023/12/26 00:50:47;0.00;0.00;0.62;0.00;0.00;0.62;2.07;1.23;;;22.70;30.00;;;;;;2256369;61;20443;-61
2023/12/26 00:53:32;0.00;0.00;0.62;0.00;0.00;0.62;1.50;1.00;;;22.70;30.00;;;;;;2256186;61;20358;-59
2023/12/26 00:56:17;0.00;0.00;0.62;0.00;0.00;0.62;2.17;1.13;;;22.70;30.00;;;;;;2256123;61;20393;-59
2023/12/26 00:59:02;0.00;0.00;0.62;0.00;0.00;0.62;1.93;1.10;;;22.70;30.00;;;;;;2256518;61;20834;-60
2023/12/26 01:01:47;0.00;0.00;0.62;0.00;0.00;0.62;1.60;1.10;;;22.70;30.00;;;;;;2255929;61;20908;-57
2023/12/26 01:04:34;0.00;0.00;0.62;0.00;0.00;0.62;1.60;1.10;;;22.70;30.00;;;;;;2255673;61;20905;-61
2023/12/26 01:07:19;0.00;0.00;0.62;0.00;0.00;0.62;2.10;1.23;;;22.70;30.00;;;;;;2256547;61;20424;-60
2023/12/26 01:10:05;0.00;0.00;0.62;0.00;0.00;0.62;2.00;1.20;;;22.70;30.00;;;;;;2255878;61;20380;-59
2023/12/26 01:12:50;0.00;0.00;0.62;0.00;0.00;0.62;1.70;1.03;;;22.70;30.00;;;;;;2255693;61;20365;-56
2023/12/26 01:15:35;0.00;0.00;0.62;0.00;0.00;0.62;1.53;0.90;;;22.70;30.00;;;;;;2256400;61;20445;-61
2023/12/26 01:18:20;0.00;0.00;0.62;0.00;0.00;0.62;1.90;1.03;;;22.70;30.00;;;;;;2252779;61;20389;-59
2023/12/26 01:21:08;0.00;0.00;0.62;0.00;0.00;0.62;2.80;1.27;;;22.70;30.00;;;;;;2256320;61;20386;-59
2023/12/26 01:23:55;0.00;0.00;0.62;0.00;0.00;0.62;1.60;0.80;;;22.70;30.00;;;;;;2256227;61;20370;-62
2023/12/26 01:26:39;0.00;0.00;0.62;0.00;0.00;0.62;1.60;1.10;;;22.70;30.70;;;;;;2256139;61;20377;-60
2023/12/26 01:29:24;0.00;0.00;0.62;0.00;0.00;0.62;1.70;0.90;;;22.70;30.00;;;;;;2255890;61;20385;-61
2023/12/26 01:32:09;0.00;0.00;0.62;0.00;0.00;0.62;1.77;1.10;;;22.70;30.00;;;;;;2255221;61;20466;-61
2023/12/26 01:34:56;0.00;0.00;0.62;0.00;0.00;0.62;1.60;0.90;;;22.70;30.00;;;;;;2254715;61;20381;-61
2023/12/26 01:37:42;0.00;0.00;0.62;0.00;0.00;0.62;1.70;1.10;;;22.70;30.00;;;;;;2256384;61;20485;-63
2023/12/26 01:40:27;0.00;0.00;0.62;0.00;0.00;0.62;1.50;0.77;;;22.70;30.00;;;;;;2255522;61;20945;-58
2023/12/26 01:43:12;0.00;0.00;0.62;0.00;0.00;0.62;1.50;0.93;;;22.70;30.00;;;;;;2255644;61;20382;-59
2023/12/26 01:45:58;0.00;0.00;0.62;0.00;0.00;0.62;1.67;0.80;;;22.70;30.00;;;;;;2256489;61;20505;-57
2023/12/26 01:48:45;0.00;0.00;0.62;0.00;0.00;0.62;1.70;1.10;;;22.70;30.00;;;;;;2255915;61;20417;-60
2023/12/26 01:51:31;0.00;0.00;0.62;0.00;0.00;0.62;1.50;0.90;;;22.70;30.00;;;;;;2255865;61;20366;-60
2023/12/26 01:54:18;0.00;0.00;0.62;0.00;0.00;0.62;1.90;0.90;;;22.70;30.00;;;;;;2256397;61;20894;-59
2023/12/26 01:57:06;0.00;0.00;0.62;0.00;0.00;0.62;1.80;1.00;;;22.70;30.00;;;;;;2256174;61;20402;-57
2023/12/26 01:59:51;0.00;0.00;0.62;0.00;0.00;0.62;1.73;0.80;;;22.70;30.00;;;;;;2255810;61;20840;-61
2023/12/26 02:02:38;0.00;0.00;0.62;0.00;0.00;0.62;1.83;1.20;;;22.70;30.00;;;;;;2255498;61;20365;-58
2023/12/26 02:05:23;0.00;0.00;0.62;0.00;0.00;0.62;1.77;1.00;;;22.70;30.00;;;;;;2256117;61;20358;-61
2023/12/26 02:08:09;0.00;0.00;0.62;0.00;0.00;0.62;1.63;1.00;;;22.70;30.00;;;;;;2256394;61;20930;-60
2023/12/26 02:10:56;0.00;0.00;0.62;0.00;0.00;0.62;1.70;0.90;;;22.70;30.00;;;;;;2256087;61;20385;-61
2023/12/26 02:13:41;0.00;0.00;0.62;0.00;0.00;0.62;1.63;1.20;;;22.70;30.00;;;;;;2255832;61;20401;-61
2023/12/26 02:16:27;0.00;0.00;0.62;0.00;0.00;0.62;2.00;1.00;;;22.70;30.00;;;;;;2255814;61;20429;-60
2023/12/26 02:19:13;0.00;0.00;0.62;0.00;0.00;0.62;1.50;0.77;;;22.70;30.00;;;;;;2256354;61;20447;-58
2023/12/26 02:21:57;0.00;0.00;0.62;0.00;0.00;0.62;1.80;1.00;;;22.70;30.00;;;;;;2256006;61;20421;-59
2023/12/26 02:24:44;0.00;0.00;0.62;0.00;0.00;0.62;1.70;0.90;;;22.70;30.00;;;;;;2255456;61;20409;-56
2023/12/26 02:27:30;0.00;0.00;0.62;0.00;0.00;0.62;1.60;0.90;;;22.70;30.00;;;;;;2255758;61;20374;-58
2023/12/26 02:30:16;0.00;0.00;0.62;0.00;0.00;0.62;1.60;0.80;;;22.60;30.00;;;;;;2255872;61;20381;-59
2023/12/26 02:33:04;0.00;0.00;0.62;0.00;0.00;0.62;1.40;0.80;;;22.70;30.00;;;;;;2255728;61;20373;-59
2023/12/26 02:35:49;0.00;0.00;0.62;0.00;0.00;0.62;1.60;0.80;;;22.70;30.00;;;;;;2256080;61;20401;-62
2023/12/26 02:38:34;0.00;0.00;0.62;0.00;0.00;0.62;1.40;0.70;;;22.70;30.00;;;;;;2262100;58;20860;-60
2023/12/26 02:41:20;0.00;0.00;0.62;0.00;0.00;0.62;1.43;0.70;;;22.70;30.00;;;;;;2253448;61;20385;-55
2023/12/26 02:44:06;0.00;0.00;0.62;0.00;0.00;0.62;2.07;0.80;;;22.70;30.00;;;;;;2256401;61;20516;-59
2023/12/26 02:46:51;0.00;0.00;0.62;0.00;0.00;0.62;1.30;0.73;;;22.70;30.00;;;;;;2255863;61;20886;-60
2023/12/26 02:49:36;0.00;0.00;0.62;0.00;0.00;0.62;1.60;0.87;;;22.70;30.00;;;;;;2256189;61;20497;-58
2023/12/26 02:52:22;0.00;0.00;0.62;0.00;0.00;0.62;1.40;0.80;;;22.70;30.00;;;;;;2611583;45;20891;-60
2023/12/26 02:55:08;0.00;0.00;0.62;0.00;0.00;0.62;1.30;0.70;;;22.70;30.00;;;;;;2254109;61;20785;-56
2023/12/26 02:57:54;0.00;0.00;0.62;0.00;0.00;0.62;1.50;0.80;;;22.60;30.00;;;;;;2252003;61;20393;-59
2023/12/26 03:00:39;0.00;0.00;0.62;0.00;0.00;0.62;2.53;0.70;;;22.60;30.00;;;;;;2252179;61;20871;-60
2023/12/26 03:03:24;0.00;0.00;0.62;0.00;0.00;0.62;1.50;0.80;;;22.70;30.00;;;;;;2253986;61;20437;-64
2023/12/26 03:06:09;0.00;0.00;0.62;0.00;0.00;0.62;1.40;0.80;;;22.70;30.00;;;;;;2251911;61;20780;-57
2023/12/26 03:08:55;0.00;0.00;0.62;0.00;0.00;0.62;1.20;0.60;;;22.60;30.00;;;;;;2251652;61;20512;-57
2023/12/26 03:11:40;0.00;0.00;0.62;0.00;0.00;0.62;1.50;0.90;;;22.70;30.00;;;;;;2251961;61;20494;-60
2023/12/26 03:14:26;0.00;0.00;0.62;0.00;0.00;0.62;1.50;0.70;;;22.60;30.00;;;;;;2254322;61;20927;-58
2023/12/26 03:17:11;0.00;0.00;0.62;0.00;0.00;0.62;1.60;0.80;;;22.60;30.00;;;;;;2254678;61;20390;-61
2023/12/26 03:19:56;0.00;0.00;0.62;0.00;0.00;0.62;1.40;0.80;;;22.70;30.00;;;;;;2252842;61;20441;-60
2023/12/26 03:22:41;0.00;0.00;0.62;0.00;0.00;0.62;1.30;0.67;;;22.60;30.60;;;;;;2252525;61;20394;-64
2023/12/26 03:25:26;0.00;0.00;0.62;0.00;0.00;0.62;1.53;0.70;;;22.60;30.00;;;;;;2254822;61;20390;-59
2023/12/26 03:28:11;0.00;0.00;0.62;0.00;0.00;0.62;1.20;0.60;;;22.60;30.00;;;;;;2252911;61;20370;-60
2023/12/26 03:30:57;0.00;0.00;0.62;0.00;0.00;0.62;1.47;0.73;;;22.60;30.00;;;;;;2252053;61;20797;-65
2023/12/26 03:33:42;0.00;0.00;0.62;0.00;0.00;0.62;1.50;0.83;;;22.70;30.00;;;;;;2252548;61;20891;-58
2023/12/26 03:36:27;0.00;0.00;0.62;0.00;0.00;0.62;1.50;0.77;;;22.60;30.00;;;;;;2255071;61;20433;-58
2023/12/26 03:39:12;0.00;0.00;0.62;0.00;0.00;0.62;1.43;0.70;;;22.60;30.00;;;;;;2252282;61;20407;-58
2023/12/26 03:41:57;0.00;0.00;0.62;0.00;0.00;0.62;1.67;0.83;;;22.60;30.00;;;;;;2252243;61;20825;-60
2023/12/26 03:44:46;0.00;0.00;0.62;0.00;0.00;0.62;1.30;0.60;;;22.70;30.00;;;;;;2252775;61;20367;-61
2023/12/26 03:47:32;0.00;0.00;0.62;0.00;0.00;0.62;1.67;0.93;;;22.60;30.00;;;;;;2254604;61;20419;-58
2023/12/26 03:50:18;0.00;0.00;0.62;0.00;0.00;0.62;1.40;0.70;;;22.60;30.00;;;;;;2255094;61;20880;-58
2023/12/26 03:53:03;0.00;0.00;0.62;0.00;0.00;0.62;1.30;0.70;;;22.60;30.00;;;;;;2251816;61;20363;-57
2023/12/26 03:55:49;0.00;0.00;0.62;0.00;0.00;0.62;1.20;0.60;;;22.60;30.00;;;;;;2252667;61;20935;-55
2023/12/26 03:58:34;0.00;0.00;0.62;0.00;0.00;0.62;1.30;0.70;;;22.60;30.00;;;;;;2254796;61;20959;-57
2023/12/26 04:01:19;0.00;0.00;0.62;0.00;0.00;0.62;1.50;0.70;;;22.60;30.00;;;;;;2251865;61;20422;-57
2023/12/26 04:04:06;0.00;0.00;0.62;0.00;0.00;0.62;1.40;0.70;;;22.60;30.00;;;;;;2254936;61;20410;-59
2023/12/26 04:06:50;0.00;0.00;0.62;0.00;0.00;0.62;1.30;0.70;;;22.60;30.00;;;;;;2255081;61;20371;-58
2023/12/26 04:09:36;0.00;0.00;0.62;0.00;0.00;0.62;1.60;0.60;;;22.60;30.00;;;;;;2254725;61;20440;-58
2023/12/26 04:12:21;0.00;0.00;0.62;0.00;0.00;0.62;1.37;0.70;;;22.60;30.00;;;;;;2254567;61;20371;-57
2023/12/26 04:15:09;0.00;0.00;0.62;0.00;0.00;0.62;1.43;0.70;;;22.60;30.00;;;;;;2254699;61;20417;-59
2023/12/26 04:17:54;0.00;0.00;0.62;0.00;0.00;0.62;1.40;0.70;;;22.60;30.00;;;;;;2254934;61;20383;-57
2023/12/26 04:20:41;0.00;0.00;0.62;0.00;0.00;0.62;1.33;0.70;;;22.60;30.00;;;;;;2254976;61;20402;-58
2023/12/26 04:23:25;0.00;0.00;0.62;0.00;0.00;0.62;1.20;0.60;;;22.60;30.00;;;;;;2254280;61;20375;-55
2023/12/26 04:26:10;0.00;0.00;0.62;0.00;0.00;0.62;1.30;0.70;;;22.60;30.00;;;;;;2255199;61;20931;-58
2023/12/26 04:28:56;0.00;0.00;0.62;0.00;0.00;0.62;1.20;0.60;;;22.60;30.00;;;;;;2254822;61;20887;-59
2023/12/26 04:31:41;0.00;0.00;0.62;0.00;0.00;0.62;1.40;0.60;;;22.60;30.00;;;;;;2254263;61;20418;-53
2023/12/26 04:34:26;0.00;0.00;0.62;0.00;0.00;0.62;1.30;0.70;;;22.60;30.00;;;;;;2254971;61;20966;-57
2023/12/26 04:37:13;0.00;0.00;0.62;0.00;0.00;0.62;1.20;0.60;;;22.60;30.00;;;;;;2254669;61;20398;-59
2023/12/26 04:39:58;0.00;0.00;0.62;0.00;0.00;0.62;1.67;0.83;;;22.60;30.00;;;;;;2252344;61;20391;-56
2023/12/26 04:42:44;0.00;0.00;0.62;0.00;0.00;0.62;1.30;0.60;;;22.60;30.00;;;;;;2254617;61;20370;-58
2023/12/26 04:45:29;0.00;0.00;0.62;0.00;0.00;0.62;1.63;0.80;;;22.60;30.00;;;;;;2254618;61;20429;-56
2023/12/26 04:48:14;0.00;0.00;0.62;0.00;0.00;0.62;1.20;0.60;;;22.60;30.00;;;;;;2255035;61;20371;-55
2023/12/26 04:51:00;0.00;0.00;0.62;0.00;0.00;0.62;1.40;0.80;;;22.60;30.00;;;;;;2255030;61;20926;-59
2023/12/26 04:53:47;0.00;0.00;0.62;0.00;0.00;0.62;1.30;0.60;;;22.60;30.00;;;;;;2254217;61;20421;-57
2023/12/26 04:56:32;0.00;0.00;0.62;0.00;0.00;0.62;1.70;0.80;;;22.60;30.00;;;;;;2254874;61;20390;-57
2023/12/26 04:59:17;0.00;0.00;0.62;0.00;0.00;0.62;1.40;0.70;;;22.60;30.00;;;;;;2254722;61;20426;-59
2023/12/26 05:02:03;0.00;0.00;0.62;0.00;0.00;0.62;1.50;0.90;;;22.60;30.00;;;;;;2254454;61;20756;-59
2023/12/26 05:04:48;0.00;0.00;0.62;0.00;0.00;0.62;1.77;0.83;;;22.60;30.00;;;;;;2252120;61;20413;-57
2023/12/26 05:07:33;0.00;0.00;0.62;0.00;0.00;0.62;1.40;0.60;;;22.60;30.00;;;;;;2254468;61;20421;-57
2023/12/26 05:10:20;0.00;0.00;0.62;0.00;0.00;0.62;1.50;0.70;;;22.60;30.00;;;;;;2254889;61;20441;-57
2023/12/26 05:13:05;0.00;0.00;0.62;0.00;0.00;0.62;1.50;0.70;;;22.60;30.00;;;;;;2252159;61;20379;-55
2023/12/26 05:15:51;0.00;0.00;0.62;0.00;0.00;0.62;1.40;0.70;;;22.60;30.00;;;;;;2254476;61;20873;-59
2023/12/26 05:18:36;0.00;0.00;0.62;0.00;0.00;0.62;1.20;0.60;;;22.60;30.00;;;;;;2252632;61;20904;-57
2023/12/26 05:21:23;0.00;0.00;0.62;0.00;0.00;0.62;1.60;0.67;;;22.60;30.00;;;;;;2254568;61;20418;-59
2023/12/26 05:24:08;0.00;0.00;0.62;0.00;0.00;0.62;1.37;0.70;;;22.60;30.00;;;;;;2252473;61;20406;-57
2023/12/26 05:26:55;0.00;0.00;0.62;0.00;0.00;0.62;1.40;0.67;;;22.60;30.00;;;;;;2254677;61;20358;-55
2023/12/26 05:29:43;0.00;0.00;0.62;0.00;0.00;0.62;1.67;0.80;;;22.60;30.00;;;;;;2254464;61;20395;-61
2023/12/26 05:32:28;0.00;0.00;0.62;0.00;0.00;0.62;1.37;0.67;;;22.60;30.00;;;;;;2254388;61;20414;-57
2023/12/26 05:35:13;0.00;0.00;0.62;0.00;0.00;0.62;1.37;0.70;;;22.60;30.00;;;;;;2254933;61;20370;-59
2023/12/26 05:38:00;0.00;0.00;0.62;0.00;0.00;0.62;1.57;0.77;;;22.60;30.00;;;;;;2254389;61;20367;-58
2023/12/26 05:40:45;0.00;0.00;0.62;0.00;0.00;0.62;1.40;0.80;;;22.60;30.00;;;;;;2252403;61;20689;-58
2023/12/26 05:43:31;0.00;0.00;0.62;0.00;0.00;0.62;1.43;0.70;;;22.60;30.00;;;;;;2252308;61;20944;-59
2023/12/26 05:46:19;0.00;0.00;0.62;0.00;0.00;0.62;1.50;0.83;;;22.60;30.00;;;;;;2252045;61;20382;-59
2023/12/26 05:49:04;0.00;0.00;0.62;0.00;0.00;0.62;1.73;0.70;;;22.60;30.00;;;;;;2254738;61;20856;-59
2023/12/26 05:51:48;0.00;0.00;0.62;0.00;0.00;0.62;1.40;0.70;;;22.60;30.00;;;;;;2253910;61;20777;-58
2023/12/26 05:54:34;0.00;0.00;0.62;0.00;0.00;0.62;1.33;0.70;;;22.60;30.50;;;;;;2254687;61;20414;-57
2023/12/26 05:57:18;0.00;0.00;0.62;0.00;0.00;0.62;1.30;0.60;;;22.60;30.00;;;;;;2252351;61;20812;-59
2023/12/26 06:00:09;0.00;0.00;0.62;0.00;0.00;0.62;1.60;0.70;;;22.60;30.00;;;;;;2252005;61;20414;-59
2023/12/26 06:03:00;0.00;0.00;0.62;0.00;0.00;0.62;1.87;0.80;;;22.60;30.00;;;;;;2252031;61;20370;-60
2023/12/26 06:05:47;0.00;0.00;0.62;0.00;0.00;0.62;1.30;0.60;;;22.60;30.00;;;;;;2254498;61;20393;-56
2023/12/26 06:08:32;0.00;0.00;0.62;0.00;0.00;0.62;2.03;1.00;;;22.60;30.00;;;;;;2252392;61;20931;-56
2023/12/26 06:11:16;0.00;0.00;0.62;0.00;0.00;0.62;2.37;1.20;;;22.60;30.00;;;;;;2252705;61;20910;-57
2023/12/26 06:14:02;0.00;0.00;0.62;0.00;0.00;0.62;2.10;1.40;;;22.60;30.00;;;;;;2254356;61;20374;-55
2023/12/26 06:16:49;0.00;0.00;0.62;0.00;0.00;0.62;1.97;1.50;;;22.60;30.00;;;;;;2254728;61;20386;-58
2023/12/26 06:19:34;0.00;0.00;0.62;0.00;0.00;0.62;2.40;1.70;;;22.60;30.00;;;;;;2254567;61;20453;-58
2023/12/26 06:22:19;0.00;0.00;0.62;0.00;0.00;0.62;2.70;1.90;;;22.60;30.00;;;;;;2253839;61;20433;-59
2023/12/26 06:25:05;0.00;0.00;0.62;0.00;0.00;0.62;3.10;1.97;;;22.50;29.90;;;;;;2254635;61;20370;-63
2023/12/26 06:27:50;0.00;0.00;0.62;0.00;0.00;0.62;3.40;2.00;;;22.50;29.90;;;;;;2254730;61;20626;-57
2023/12/26 06:30:35;0.00;0.00;0.62;0.00;0.00;0.62;2.90;2.23;;;22.50;29.90;;;;;;2254515;61;20441;-58
2023/12/26 06:33:22;0.00;0.00;0.62;0.00;0.00;0.62;2.90;2.40;;;22.50;29.90;;;;;;2254178;61;20417;-55
2023/12/26 06:36:08;0.00;0.00;0.62;0.00;0.00;0.62;4.00;2.50;;;22.60;30.00;;;;;;2254206;61;20390;-58
2023/12/26 06:38:56;0.00;0.00;0.62;0.00;0.00;0.62;3.03;1.90;;;22.60;30.00;;;;;;2254592;61;20417;-56
2023/12/26 06:41:43;0.00;0.00;0.62;0.00;0.00;0.62;4.43;2.83;;;22.60;30.00;;;;;;2254199;61;20370;-60
2023/12/26 06:44:27;0.00;0.00;0.62;0.00;0.00;0.62;4.10;2.40;;;22.50;29.90;;;;;;2254153;61;20935;-60
2023/12/26 06:47:13;0.00;0.00;0.62;0.00;0.00;0.62;3.47;2.57;;;22.50;29.90;;;;;;2254704;61;20445;-57
2023/12/26 06:49:59;0.00;0.00;0.62;0.00;0.00;0.62;3.30;2.43;;;22.50;29.90;;;;;;2254496;61;21019;-57
2023/12/26 06:52:44;0.00;0.00;0.62;0.00;0.00;0.62;4.10;2.33;;;22.50;29.90;;;;;;2254657;61;20422;-57
2023/12/26 06:55:30;0.00;0.00;0.62;0.00;0.00;0.62;4.10;2.10;;;22.50;29.90;;;;;;2255367;61;20382;-58
2023/12/26 06:58:15;0.00;0.00;0.62;0.00;0.00;0.62;3.30;2.53;;;22.50;29.90;;;;;;2254857;61;20382;-62
2023/12/26 07:01:00;0.00;0.00;0.62;0.00;0.00;0.62;3.67;2.30;;;22.50;29.90;;;;;;2255349;61;20880;-57
2023/12/26 07:03:45;0.00;0.00;0.62;0.00;0.00;0.62;3.23;2.70;;;22.50;29.90;;;;;;2254954;61;20386;-57
2023/12/26 07:06:32;0.00;0.00;0.62;0.00;0.00;0.62;3.17;2.20;;;22.50;29.90;;;;;;2254771;61;20402;-57
2023/12/26 07:09:17;0.00;0.00;0.62;0.00;0.00;0.62;3.47;2.80;;;22.50;29.90;;;;;;2252958;61;20505;-57
2023/12/26 07:12:02;0.00;0.00;0.62;0.00;0.00;0.62;3.70;2.53;;;22.50;29.90;;;;;;2252469;61;20402;-57
2023/12/26 07:14:47;0.00;0.00;0.62;0.00;0.00;0.62;3.90;2.53;;;22.50;29.90;;;;;;2252663;61;20374;-56
2023/12/26 07:17:32;0.00;0.00;0.62;0.00;0.00;0.62;3.40;2.10;;;22.50;29.90;;;;;;2255046;61;20422;-58
2023/12/26 07:20:17;0.00;0.00;0.62;0.00;0.00;0.62;3.43;2.30;;;22.50;29.90;;;;;;2252383;61;20422;-60
2023/12/26 07:23:04;0.00;0.00;0.62;0.00;0.00;0.62;3.30;2.30;;;22.50;29.90;;;;;;2252488;61;20394;-58
2023/12/26 07:25:49;0.00;0.00;0.62;0.00;0.00;0.62;3.47;2.10;;;22.50;29.90;;;;;;2252993;61;20425;-58
2023/12/26 07:28:34;0.00;0.00;0.62;0.00;0.00;0.62;2.70;1.80;;;22.50;29.90;;;;;;2252477;61;20374;-59
2023/12/26 07:31:20;0.00;0.00;0.62;0.00;0.00;0.62;3.70;2.40;;;22.50;30.40;;;;;;2252786;61;20422;-57
2023/12/26 07:34:08;0.00;0.00;0.62;0.00;0.00;0.62;3.63;2.80;;;22.50;29.80;;;;;;2252919;61;20414;-56
2023/12/26 07:36:53;0.00;0.00;0.62;0.00;0.00;0.62;2.90;2.10;;;22.50;29.80;;;;;;2252399;61;20676;-56
2023/12/26 07:39:40;0.00;0.00;0.62;0.00;0.00;0.62;3.23;2.23;;;22.50;29.90;;;;;;2255014;61;20457;-57
2023/12/26 07:42:24;0.00;0.00;0.62;0.00;0.00;0.62;3.70;2.40;;;22.50;29.80;;;;;;2252178;61;20782;-57
2023/12/26 07:45:09;0.00;0.00;0.62;0.00;0.00;0.62;3.17;2.47;;;22.50;29.80;;;;;;2252526;61;20585;-58
2023/12/26 07:47:55;0.00;0.00;0.62;0.00;0.00;0.62;3.07;2.10;;;22.50;29.80;;;;;;2252902;61;20363;-57
2023/12/26 07:50:40;0.00;0.00;0.62;0.00;0.00;0.62;3.90;3.00;;;22.50;29.80;;;;;;2252338;61;20648;-56
2023/12/26 07:53:25;0.00;0.00;0.62;0.00;0.00;0.62;3.00;2.00;;;22.50;29.80;;;;;;2252181;61;20891;-59
2023/12/26 07:56:11;0.00;0.00;0.62;0.00;0.00;0.62;4.53;2.57;;;22.50;29.80;;;;;;2252754;61;20391;-54
2023/12/26 07:58:56;0.00;0.00;0.62;0.00;0.00;0.62;2.80;2.03;;;22.50;29.80;;;;;;2254815;61;20949;-57
2023/12/26 08:01:41;0.00;0.00;0.62;0.00;0.00;0.62;3.40;2.63;;;22.50;29.80;;;;;;2252051;61;20406;-57
2023/12/26 08:04:26;0.00;0.00;0.62;0.00;0.00;0.62;3.47;2.27;;;22.50;29.80;;;;;;2252529;61;20359;-59
2023/12/26 08:07:12;0.00;0.00;0.62;0.00;0.00;0.62;3.87;2.90;;;22.50;29.80;;;;;;2252656;61;20834;-56
2023/12/26 08:09:56;0.00;0.00;0.62;0.00;0.00;0.62;3.60;2.87;;;22.50;29.80;;;;;;2252574;61;20390;-58
2023/12/26 08:12:44;0.00;0.00;0.62;0.00;0.00;0.62;4.37;3.07;;;22.50;29.80;;;;;;2252004;61;20398;-54
2023/12/26 08:15:29;0.00;0.00;0.62;0.00;0.00;0.62;4.10;2.80;;;22.50;29.80;;;;;;2252723;61;20379;-58
2023/12/26 08:18:15;0.00;0.00;0.62;0.00;0.00;0.62;4.03;2.73;;;22.50;29.70;;;;;;2252667;61;20414;-60
2023/12/26 08:21:01;0.00;0.00;0.62;0.00;0.00;0.62;5.33;3.57;;;22.50;29.70;;;;;;2252297;61;21034;-54
2023/12/26 08:23:46;0.00;0.00;0.62;0.00;0.00;0.62;4.70;3.00;;;22.50;29.70;;;;;;2252603;61;20439;-59
2023/12/26 08:26:31;0.00;0.00;0.62;0.00;0.00;0.62;4.40;3.37;;;22.50;29.70;;;;;;2252657;61;20374;-59
2023/12/26 08:29:17;0.00;0.00;0.62;0.00;0.00;0.62;4.70;3.60;;;22.50;29.70;;;;;;2254900;61;20522;-57
2023/12/26 08:32:03;0.00;0.00;0.62;0.00;0.00;0.62;5.60;3.73;;;22.50;29.70;;;;;;2255208;61;20373;-56
2023/12/26 08:34:49;0.00;0.00;0.62;0.00;0.00;0.62;6.27;4.20;;;22.50;29.70;;;;;;2256193;61;20482;-56
2023/12/26 08:37:34;0.00;0.00;0.62;0.00;0.00;0.62;6.87;4.00;;;22.50;29.70;;;;;;2256732;61;20418;-57
2023/12/26 08:40:20;0.00;0.00;0.62;0.00;0.00;0.62;6.40;4.43;;;22.50;29.70;;;;;;2256525;61;20956;-58
2023/12/26 08:43:05;0.00;0.00;0.62;0.00;0.00;0.62;6.87;5.13;;;22.50;29.70;;;;;;2255959;61;20369;-56
2023/12/26 08:45:52;0.00;0.00;0.62;0.00;0.00;0.62;8.50;6.40;;;22.50;29.70;;;;;;2256830;61;20460;-55
2023/12/26 08:48:36;0.00;0.00;0.62;0.00;0.00;0.62;7.00;5.50;;;22.50;29.70;;;;;;2256585;61;20416;-57
2023/12/26 08:51:21;0.00;0.00;0.62;0.00;0.00;0.62;8.43;6.50;;;22.50;29.70;;;;;;2256027;61;20382;-56
2023/12/26 08:54:06;0.00;0.00;0.62;0.00;0.00;0.62;8.40;6.40;;;22.50;29.70;;;;;;2256943;61;20377;-55
2023/12/26 08:56:51;0.00;0.00;0.62;0.00;0.00;0.62;9.13;6.43;;;22.50;29.70;;;;;;2256144;61;20420;-57
2023/12/26 08:59:37;0.00;0.00;0.62;0.00;0.00;0.62;8.37;7.20;;;22.50;29.70;;;;;;2256550;61;20393;-57
2023/12/26 09:02:24;0.00;0.00;0.62;0.00;0.00;0.62;8.70;6.50;;;22.50;29.70;;;;;;2256033;61;20362;-57
2023/12/26 09:05:11;0.00;0.00;0.62;0.00;0.00;0.62;7.87;6.60;;;22.50;29.70;;;;;;2256301;61;20369;-57
2023/12/26 09:07:55;0.00;0.00;0.62;0.00;0.00;0.62;10.50;7.37;;;22.50;29.70;;;;;;2256707;61;20450;-56
2023/12/26 09:10:40;0.00;0.00;0.62;0.00;0.00;0.62;9.50;7.20;;;22.50;29.70;;;;;;2256461;61;20444;-56
2023/12/26 09:13:26;0.00;0.00;0.62;0.00;0.00;0.62;10.57;7.70;;;22.50;29.70;;;;;;2255836;61;20462;-54
2023/12/26 09:16:11;0.00;0.00;0.62;0.00;0.00;0.62;10.47;7.97;;;22.50;29.70;;;;;;2256714;61;20432;-55
2023/12/26 09:18:57;0.00;0.00;0.62;0.00;0.00;0.62;9.20;7.90;;;22.50;29.70;;;;;;2256014;61;20369;-60
2023/12/26 09:21:42;0.00;0.00;0.62;0.00;0.00;0.62;8.97;7.30;;;22.50;29.70;;;;;;2256101;61;20502;-58
2023/12/26 09:24:27;0.00;0.00;0.62;0.00;0.00;0.62;9.10;6.40;;;22.50;29.70;;;;;;2256427;61;20895;-60
2023/12/26 09:27:12;0.00;0.00;0.62;0.00;0.00;0.62;9.30;7.00;;;22.50;29.60;;;;;;2256290;61;20417;-59
2023/12/26 09:29:57;0.00;0.00;0.62;0.00;0.00;0.62;7.53;6.07;;;22.50;29.60;;;;;;2256598;61;20377;-59
2023/12/26 09:32:41;0.00;0.00;0.62;0.00;0.00;0.62;7.13;6.30;;;22.50;29.60;;;;;;2256210;61;20787;-55
2023/12/26 09:35:28;0.00;0.00;0.62;0.00;0.00;0.62;9.80;7.00;;;22.50;29.60;;;;;;2256408;61;20365;-58
2023/12/26 09:38:13;0.00;0.00;0.62;0.00;0.00;0.62;6.97;5.30;;;22.50;29.60;;;;;;2256571;61;20362;-58
2023/12/26 09:40:59;0.00;0.00;0.62;0.00;0.00;0.62;8.07;5.87;;;22.50;29.60;;;;;;2256062;61;20386;-63
2023/12/26 09:43:44;0.00;0.00;0.62;0.00;0.00;0.62;6.50;5.70;;;22.50;29.60;;;;;;2256075;61;20874;-58
2023/12/26 09:46:31;0.00;0.00;0.62;0.00;0.00;0.62;6.70;5.20;;;22.50;29.60;;;;;;2256408;61;20361;-54
2023/12/26 09:49:15;0.00;0.00;0.62;0.00;0.00;0.62;7.77;6.13;;;22.50;29.50;;;;;;2255623;61;20432;-59
2023/12/26 09:52:06;0.00;0.00;0.62;0.00;0.00;0.62;6.87;5.60;;;22.50;29.50;;;;;;2255941;61;20385;-58
2023/12/26 09:54:55;0.00;0.00;0.62;0.00;0.00;0.62;7.97;6.17;;;22.50;29.50;;;;;;2256626;61;20370;-56
2023/12/26 09:57:42;0.00;0.00;0.62;0.00;0.00;0.62;7.93;5.67;;;22.50;29.50;;;;;;2256083;61;20413;-54
2023/12/26 10:00:27;0.00;0.00;0.62;0.00;0.00;0.62;7.20;6.13;;;22.50;29.50;;;;;;2256283;61;20470;-54
2023/12/26 10:03:14;0.00;0.00;0.62;0.00;0.00;0.62;8.90;5.93;;;22.50;29.50;;;;;;2255739;61;20400;-56
2023/12/26 10:05:58;0.00;0.00;0.62;0.00;0.00;0.62;8.30;6.00;;;22.50;29.50;;;;;;2256482;61;20898;-56
2023/12/26 10:08:45;0.00;0.00;0.62;0.00;0.00;0.62;7.97;5.83;;;22.50;29.50;;;;;;2256299;61;20428;-55
2023/12/26 10:11:32;0.00;0.00;0.62;0.00;0.00;0.62;6.90;5.60;;;22.50;29.50;;;;;;2256161;61;20496;-58
2023/12/26 10:14:28;0.00;0.00;0.62;0.00;0.00;0.62;8.63;6.67;;;22.50;29.50;;;;;;2256523;61;20366;-56
2023/12/26 10:17:16;0.00;0.00;0.62;0.00;0.00;0.62;9.70;7.20;;;22.50;29.50;;;;;;2256342;61;20386;-56
2023/12/26 10:20:03;0.00;0.00;0.62;0.00;0.00;0.62;8.67;6.77;;;22.50;29.50;;;;;;2256465;61;20409;-53
2023/12/26 10:22:48;0.00;0.00;0.62;0.00;0.00;0.62;6.80;5.67;;;22.50;29.50;;;;;;2256128;61;20913;-56
2023/12/26 10:25:34;0.00;0.00;0.62;0.00;0.00;0.62;7.63;6.13;;;22.50;29.50;;;;;;2256039;61;20775;-55
2023/12/26 10:28:19;0.00;0.00;0.62;0.00;0.00;0.62;8.03;6.50;;;22.50;29.40;;;;;;2257287;61;20421;-55
2023/12/26 10:31:12;0.00;0.00;0.62;0.00;0.00;0.62;7.47;6.03;;;22.50;29.50;;;;;;2257226;61;20924;-56
2023/12/26 10:34:11;0.00;0.00;0.62;0.00;0.00;0.62;8.80;6.60;;;22.50;29.40;;;;;;2256785;61;20365;-53
2023/12/26 10:36:56;0.00;0.00;0.62;0.00;0.00;0.62;8.47;5.80;;;22.50;29.50;;;;;;2257128;61;20389;-53
2023/12/26 10:39:42;0.00;0.00;0.62;0.00;0.00;0.62;6.53;5.20;;;22.50;29.50;;;;;;2257178;61;20393;-58
2023/12/26 10:42:28;0.00;0.00;0.62;0.00;0.00;0.62;7.27;5.67;;;22.50;29.50;;;;;;2256615;61;20772;-57
2023/12/26 10:45:17;0.00;0.00;0.62;0.00;0.00;0.62;8.63;6.53;;;22.50;29.50;;;;;;2257309;61;20800;-55
2023/12/26 10:48:04;0.00;0.00;0.62;0.00;0.00;0.62;8.47;6.60;;;22.50;29.50;;;;;;2256264;61;20395;-55
2023/12/26 10:50:51;0.00;0.00;0.62;0.00;0.00;0.62;6.93;5.53;;;22.50;29.50;;;;;;2257210;61;20520;-56
2023/12/26 10:53:43;0.00;0.00;0.62;0.00;0.00;0.62;7.20;5.90;;;22.50;29.40;;;;;;2256897;61;20361;-55